« Back
NWS Peachtree City, Ga » Text Product » AHN Terminal Aerodrome Forecast


Printer-friendly Version
Current Version              Previous Versions:   1  2  3  4  5  6  7  8  9  

Terminal Aerodrome Forecast

423
FTAK31 PAJN 230500
TAFAHN
TAF
PAHN 230521Z 2306/2406 29008KT P6SM BKN100
     FM231000 31005KT P6SM VCSH SCT050 BKN080
     FM231500 32005KT P6SM VCSH BKN050
     FM232100 14006KT P6SM -SHRA BKN040
     FM240300 VRB05KT P6SM VCSH BKN050
      AMD LTD TO CLD VIS AND WIND=

USA.gov is the U.S. government's official web portal to all federal, state and local government web resources and services.